createdAt,value
2022-11-28T00:00:46.362Z,9.203639
2022-11-28T00:01:46.384Z,9.203631
2022-11-28T00:02:46.607Z,9.203881
2022-11-28T00:03:46.403Z,9.203961
2022-11-28T00:04:46.347Z,9.203818
2022-11-28T00:05:47.020Z,9.203694
2022-11-28T00:06:47.360Z,9.203842
2022-11-28T00:07:46.373Z,9.203891
2022-11-28T00:08:46.300Z,9.203723
2022-11-28T00:09:46.291Z,9.203884
2022-11-28T00:10:46.284Z,9.203864
2022-11-28T00:11:46.293Z,9.203767
2022-11-28T00:12:46.291Z,9.203910
2022-11-28T00:13:46.276Z,9.204000
2022-11-28T00:14:46.286Z,9.203985
2022-11-28T00:15:46.316Z,9.203886
2022-11-28T00:16:46.235Z,9.203885
2022-11-28T00:17:46.300Z,9.203816
2022-11-28T00:18:46.387Z,9.203763
2022-11-28T00:19:46.304Z,9.203732
2022-11-28T00:20:46.221Z,9.203785
2022-11-28T00:21:46.226Z,9.203763
2022-11-28T00:22:46.239Z,9.203658
2022-11-28T00:23:46.207Z,9.203613
2022-11-28T00:24:46.215Z,9.203805
2022-11-28T00:25:46.200Z,9.203800
2022-11-28T00:26:46.220Z,9.203372
2022-11-28T00:27:46.188Z,9.203473
2022-11-28T00:28:46.203Z,9.203674
2022-11-28T00:29:46.176Z,9.203704
2022-11-28T00:30:46.205Z,9.203898
2022-11-28T00:31:46.276Z,9.203691
2022-11-28T00:32:46.151Z,9.203643
2022-11-28T00:33:46.211Z,9.203614
2022-11-28T00:34:46.158Z,9.203885
2022-11-28T00:35:46.220Z,9.203837
2022-11-28T00:36:46.176Z,9.203726
2022-11-28T00:37:46.161Z,9.203609
2022-11-28T00:38:46.144Z,9.203648
2022-11-28T00:39:46.128Z,9.203974
2022-11-28T00:40:46.122Z,9.203685
2022-11-28T00:41:46.111Z,9.203869
2022-11-28T00:42:46.230Z,9.203840
2022-11-28T00:43:46.137Z,9.203820
2022-11-28T00:44:46.089Z,9.203892
2022-11-28T00:45:46.113Z,9.203816
2022-11-28T00:46:46.112Z,9.203796
2022-11-28T00:47:46.087Z,9.203678
2022-11-28T00:48:46.110Z,9.203697
2022-11-28T00:49:46.059Z,9.203853
2022-11-28T00:50:46.067Z,9.203694
2022-11-28T00:51:46.119Z,9.204051
2022-11-28T00:52:46.069Z,9.203774
2022-11-28T00:53:46.068Z,9.203652
2022-11-28T00:54:46.043Z,9.203666
2022-11-28T00:55:46.055Z,9.203642
2022-11-28T00:56:46.049Z,9.203794
2022-11-28T00:57:46.036Z,9.203897
2022-11-28T00:58:46.043Z,9.203635
2022-11-28T00:59:46.011Z,9.203827
2022-11-28T01:00:46.100Z,9.203730
2022-11-28T01:01:46.149Z,9.203747
2022-11-28T01:02:46.030Z,9.203653
2022-11-28T01:03:46.013Z,9.203676
2022-11-28T01:04:45.988Z,9.204611
2022-11-28T01:05:45.988Z,9.204371
2022-11-28T01:06:45.993Z,9.203787
2022-11-28T01:07:46.131Z,9.203602
2022-11-28T01:08:45.954Z,9.203493
2022-11-28T01:09:45.966Z,9.203726
2022-11-28T01:10:45.934Z,9.203681
2022-11-28T01:11:45.955Z,9.203583
2022-11-28T01:12:45.974Z,9.203724
2022-11-28T01:13:45.954Z,9.203400
2022-11-28T01:14:45.935Z,9.203582
2022-11-28T01:15:45.937Z,9.203754
2022-11-28T01:16:45.953Z,9.203722
2022-11-28T01:17:45.945Z,9.203582
2022-11-28T01:18:45.898Z,9.203807
2022-11-28T01:19:45.912Z,9.203780
2022-11-28T01:20:45.901Z,9.203751
2022-11-28T01:21:45.883Z,9.203736
2022-11-28T01:22:45.899Z,9.203732
2022-11-28T01:23:46.941Z,9.203626
2022-11-28T01:24:45.893Z,9.203593
2022-11-28T01:25:45.856Z,9.203712
2022-11-28T01:26:45.855Z,9.203807
2022-11-28T01:27:45.907Z,9.203674
2022-11-28T01:28:45.929Z,9.203611
2022-11-28T01:29:45.861Z,9.203633
2022-11-28T01:30:45.844Z,9.203666
2022-11-28T01:31:45.887Z,9.203613
2022-11-28T01:32:45.833Z,9.203457
2022-11-28T01:33:45.842Z,9.203729
2022-11-28T01:34:45.802Z,9.203745
2022-11-28T01:35:45.901Z,9.203705
2022-11-28T01:36:45.828Z,9.203559
2022-11-28T01:37:45.799Z,9.203692
2022-11-28T01:38:46.832Z,9.203592
2022-11-28T01:39:45.855Z,9.203800
2022-11-28T01:40:45.767Z,9.203564
2022-11-28T01:41:45.837Z,9.203542
2022-11-28T01:42:45.769Z,9.203077
2022-11-28T01:43:45.769Z,9.203410
2022-11-28T01:44:45.748Z,9.203559
2022-11-28T01:45:45.807Z,9.203625
2022-11-28T01:46:45.841Z,9.203660
2022-11-28T01:47:45.762Z,9.203752
2022-11-28T01:48:45.744Z,9.203645
2022-11-28T01:49:45.765Z,9.203602
2022-11-28T01:50:45.736Z,9.203554
2022-11-28T01:51:45.746Z,9.203584
2022-11-28T01:52:45.698Z,9.203701
2022-11-28T01:53:45.701Z,9.203985
2022-11-28T01:54:45.816Z,9.203682
2022-11-28T01:55:45.774Z,9.203491
2022-11-28T01:56:45.750Z,9.203691
2022-11-28T01:57:45.675Z,9.203636
2022-11-28T01:58:45.747Z,9.203953
2022-11-28T01:59:45.682Z,9.203960
2022-11-28T02:00:45.769Z,9.203643
2022-11-28T02:01:45.694Z,9.203645
2022-11-28T02:02:45.645Z,9.203599
2022-11-28T02:03:45.757Z,9.203728
2022-11-28T02:04:45.662Z,9.203865
2022-11-28T02:05:45.689Z,9.203841
2022-11-28T02:06:46.638Z,9.203825
2022-11-28T02:07:45.677Z,9.204035
2022-11-28T02:08:45.619Z,9.203743
2022-11-28T02:09:45.628Z,9.203296
2022-11-28T02:10:45.619Z,9.203790
2022-11-28T02:11:45.672Z,9.203685
2022-11-28T02:12:45.632Z,9.203876
2022-11-28T02:13:45.603Z,9.203680
2022-11-28T02:14:45.608Z,9.203637
2022-11-28T02:15:45.584Z,9.203916
2022-11-28T02:16:45.612Z,9.204236
2022-11-28T02:17:45.606Z,9.204037
2022-11-28T02:18:50.382Z,9.203788
2022-11-28T02:19:47.571Z,9.203692
2022-11-28T02:20:45.584Z,9.203757
2022-11-28T02:21:45.568Z,9.203652
2022-11-28T02:22:45.545Z,9.203754
2022-11-28T02:23:45.554Z,9.203748
2022-11-28T02:24:45.532Z,9.203588
2022-11-28T02:25:45.568Z,9.203898
2022-11-28T02:26:45.534Z,9.203848
2022-11-28T02:27:45.584Z,9.203767
2022-11-28T02:28:45.543Z,9.203526
2022-11-28T02:29:45.512Z,9.203940
2022-11-28T02:30:45.501Z,9.203671
2022-11-28T02:31:45.551Z,9.203238
2022-11-28T02:32:45.477Z,9.203650
2022-11-28T02:33:45.489Z,9.204027
2022-11-28T02:34:47.055Z,9.203926
2022-11-28T02:35:46.459Z,9.203643
2022-11-28T02:36:45.479Z,9.203635
2022-11-28T02:37:45.473Z,9.203431
2022-11-28T02:38:45.447Z,9.203523
2022-11-28T02:39:45.437Z,9.203606
2022-11-28T02:40:45.428Z,9.203786
2022-11-28T02:41:45.484Z,9.203406
2022-11-28T02:42:45.417Z,9.203027
2022-11-28T02:43:45.520Z,9.203563
2022-11-28T02:44:45.469Z,9.203720
2022-11-28T02:45:45.395Z,9.203523
2022-11-28T02:46:45.501Z,9.203874
2022-11-28T02:47:45.378Z,9.203382
2022-11-28T02:48:45.371Z,9.203291
2022-11-28T02:49:45.371Z,9.203684
2022-11-28T02:50:45.356Z,9.203657
2022-11-28T02:51:45.395Z,9.203798
2022-11-28T02:52:45.371Z,9.203813
2022-11-28T02:53:45.364Z,9.203380
2022-11-28T02:54:45.370Z,9.203430
2022-11-28T02:55:45.346Z,9.203126
2022-11-28T02:56:45.327Z,9.203298
2022-11-28T02:57:45.371Z,9.203297
2022-11-28T02:58:45.343Z,9.203701
2022-11-28T02:59:45.395Z,9.203584
2022-11-28T03:00:45.346Z,9.203616
2022-11-28T03:01:45.349Z,9.203771
2022-11-28T03:02:45.344Z,9.203614
2022-11-28T03:03:45.289Z,9.203847
2022-11-28T03:04:45.344Z,9.203260
2022-11-28T03:05:45.299Z,9.203499
2022-11-28T03:06:45.300Z,9.203642
2022-11-28T03:07:45.357Z,9.203753
2022-11-28T03:08:45.282Z,9.203444
2022-11-28T03:09:45.307Z,9.203690
2022-11-28T03:10:46.232Z,9.203770
2022-11-28T03:11:45.230Z,9.203272
2022-11-28T03:12:45.243Z,9.203871
2022-11-28T03:13:45.267Z,9.203649
2022-11-28T03:14:45.235Z,9.203569
2022-11-28T03:15:45.313Z,9.203696
2022-11-28T03:16:45.265Z,9.203239
2022-11-28T03:17:45.196Z,9.203257
2022-11-28T03:18:45.278Z,9.203753
2022-11-28T03:19:45.210Z,9.203604
2022-11-28T03:20:45.191Z,9.203593
2022-11-28T03:21:45.177Z,9.203333
2022-11-28T03:22:45.186Z,9.203931
2022-11-28T03:23:45.173Z,9.203677
2022-11-28T03:24:45.195Z,9.203072
2022-11-28T03:25:45.177Z,9.203218
2022-11-28T03:26:45.151Z,9.203533
2022-11-28T03:27:45.209Z,9.203594
2022-11-28T03:28:45.267Z,9.203634
2022-11-28T03:29:45.131Z,9.203629
2022-11-28T03:30:45.174Z,9.203325
2022-11-28T03:31:45.330Z,9.203405
2022-11-28T03:32:45.131Z,9.203631
2022-11-28T03:33:45.108Z,9.203562
2022-11-28T03:34:45.226Z,9.203693
2022-11-28T03:35:45.131Z,9.203348
2022-11-28T03:36:45.118Z,9.203073
2022-11-28T03:37:45.085Z,9.202776
2022-11-28T03:38:45.090Z,9.202824
2022-11-28T03:39:45.075Z,9.203057
2022-11-28T03:40:45.102Z,9.202758
2022-11-28T03:41:45.078Z,9.203217
2022-11-28T03:42:45.085Z,9.203321
2022-11-28T03:43:45.080Z,9.203412
2022-11-28T03:44:45.283Z,9.203696
2022-11-28T03:45:45.054Z,9.203451
2022-11-28T03:46:45.310Z,9.203671
2022-11-28T03:47:45.103Z,9.203401
2022-11-28T03:48:45.093Z,9.203441
2022-11-28T03:49:45.053Z,9.202977
2022-11-28T03:50:45.031Z,9.202839
2022-11-28T03:51:45.017Z,9.203804
2022-11-28T03:52:45.033Z,9.203957
2022-11-28T03:53:45.024Z,9.203978
2022-11-28T03:54:45.249Z,9.203846
2022-11-28T03:55:45.078Z,9.203682
2022-11-28T03:56:44.998Z,9.203499
2022-11-28T03:57:45.067Z,9.203552
2022-11-28T03:58:44.978Z,9.203596
2022-11-28T03:59:44.978Z,9.203618
2022-11-28T04:00:45.017Z,9.203697
2022-11-28T04:01:45.017Z,9.203650
2022-11-28T04:02:44.993Z,9.203475
2022-11-28T04:03:45.020Z,9.203401
2022-11-28T04:04:45.138Z,9.203550
2022-11-28T04:05:44.963Z,9.203450
2022-11-28T04:06:44.940Z,9.203503
2022-11-28T04:07:45.043Z,9.203552
2022-11-28T04:08:44.961Z,9.203854
2022-11-28T04:09:44.963Z,9.203636
2022-11-28T04:10:44.900Z,9.203804
2022-11-28T04:11:44.902Z,9.203843
2022-11-28T04:12:44.933Z,9.203618
2022-11-28T04:13:44.944Z,9.203808
2022-11-28T04:14:45.095Z,9.203697
2022-11-28T04:15:44.914Z,9.203649
2022-11-28T04:16:47.220Z,9.204029
2022-11-28T04:17:45.874Z,9.203825
2022-11-28T04:18:44.919Z,9.203820
2022-11-28T04:19:44.947Z,9.203465
2022-11-28T04:20:44.901Z,9.203538
2022-11-28T04:21:44.871Z,9.203289
2022-11-28T04:22:44.860Z,9.203302
2022-11-28T04:23:44.911Z,9.203414
2022-11-28T04:24:45.082Z,9.203337
2022-11-28T04:25:44.891Z,9.203858
2022-11-28T04:26:44.853Z,9.203968
2022-11-28T04:27:44.834Z,9.203588
2022-11-28T04:28:44.813Z,9.203542
2022-11-28T04:29:44.836Z,9.203772
2022-11-28T04:30:44.821Z,9.203875
2022-11-28T04:31:44.867Z,9.203991
2022-11-28T04:32:44.786Z,9.203595
2022-11-28T04:33:44.780Z,9.203807
2022-11-28T04:34:45.142Z,9.203886
2022-11-28T04:35:44.852Z,9.203849
2022-11-28T04:36:44.780Z,9.203703
2022-11-28T04:37:44.861Z,9.203682
2022-11-28T04:38:44.750Z,9.203795
2022-11-28T04:39:44.752Z,9.203688
2022-11-28T04:40:44.774Z,9.203817
2022-11-28T04:41:44.753Z,9.203806
2022-11-28T04:42:47.598Z,9.203922
2022-11-28T04:43:45.743Z,9.203644
2022-11-28T04:44:44.993Z,9.203566
2022-11-28T04:45:44.777Z,9.203745
2022-11-28T04:46:44.746Z,9.203696
2022-11-28T04:47:44.719Z,9.203755
2022-11-28T04:48:44.708Z,9.203941
2022-11-28T04:49:44.683Z,9.204103
2022-11-28T04:50:44.696Z,9.203949
2022-11-28T04:51:44.795Z,9.203785
2022-11-28T04:52:44.672Z,9.203416
2022-11-28T04:53:44.687Z,9.203615
2022-11-28T04:54:44.898Z,9.203819
2022-11-28T04:55:44.679Z,9.203854
2022-11-28T04:56:44.700Z,9.203741
2022-11-28T04:57:44.664Z,9.203789
2022-11-28T04:58:44.655Z,9.203829
2022-11-28T04:59:44.632Z,9.203700
2022-11-28T05:00:44.683Z,9.203814
2022-11-28T05:01:44.735Z,9.203847
2022-11-28T05:02:44.663Z,9.203773
2022-11-28T05:03:44.611Z,9.203706
2022-11-28T05:04:44.855Z,9.203666
2022-11-28T05:05:44.634Z,9.203761
2022-11-28T05:06:44.587Z,9.203959
2022-11-28T05:07:44.731Z,9.203860
2022-11-28T05:08:44.621Z,9.203587
2022-11-28T05:09:44.605Z,9.203931
2022-11-28T05:10:44.583Z,9.203898
2022-11-28T05:11:44.572Z,9.203883
2022-11-28T05:12:44.594Z,9.203633
2022-11-28T05:13:44.568Z,9.203773
2022-11-28T05:14:44.755Z,9.203844
2022-11-28T05:15:44.586Z,9.203736
2022-11-28T05:16:44.615Z,9.203591
2022-11-28T05:17:44.536Z,9.203735
2022-11-28T05:18:44.536Z,9.203653
2022-11-28T05:19:44.546Z,9.203851
2022-11-28T05:20:44.535Z,9.203538
2022-11-28T05:21:44.579Z,9.203751
2022-11-28T05:22:44.524Z,9.203918
2022-11-28T05:23:44.564Z,9.203781
2022-11-28T05:24:44.611Z,9.203522
2022-11-28T05:25:44.491Z,9.203714
2022-11-28T05:26:44.473Z,9.203571
2022-11-28T05:27:44.481Z,9.203903
2022-11-28T05:28:44.476Z,9.204022
2022-11-28T05:29:49.396Z,9.204009
2022-11-28T05:30:46.445Z,9.203717
2022-11-28T05:31:44.523Z,9.203845
2022-11-28T05:32:44.473Z,9.203648
2022-11-28T05:33:44.441Z,9.203819
2022-11-28T05:34:44.649Z,9.203998
2022-11-28T05:35:44.426Z,9.203931
2022-11-28T05:36:44.484Z,9.203994
2022-11-28T05:37:44.424Z,9.203853
2022-11-28T05:38:44.437Z,9.204107
2022-11-28T05:39:44.819Z,9.204146
2022-11-28T05:40:44.511Z,9.204206
2022-11-28T05:41:44.405Z,9.203883
2022-11-28T05:42:44.404Z,9.203827
2022-11-28T05:43:44.414Z,9.204135
2022-11-28T05:44:44.451Z,9.203808
2022-11-28T05:45:44.433Z,9.203801
2022-11-28T05:46:44.405Z,9.203922
2022-11-28T05:47:44.386Z,9.203857
2022-11-28T05:48:44.419Z,9.203505
2022-11-28T05:49:44.697Z,9.203939
2022-11-28T05:50:44.371Z,9.204258
2022-11-28T05:51:44.349Z,9.203918
2022-11-28T05:52:44.341Z,9.203680
2022-11-28T05:53:44.329Z,9.203844
2022-11-28T05:54:44.346Z,9.203534
2022-11-28T05:55:44.400Z,9.203989
2022-11-28T05:56:44.368Z,9.203838
2022-11-28T05:57:44.342Z,9.203695
2022-11-28T05:58:44.313Z,9.203793
2022-11-28T05:59:44.580Z,9.203853
2022-11-28T06:00:44.305Z,9.203968
2022-11-28T06:01:44.417Z,9.203911
2022-11-28T06:02:44.296Z,9.203619
2022-11-28T06:03:44.321Z,9.203872
2022-11-28T06:04:44.379Z,9.203886
2022-11-28T06:05:44.447Z,9.203871
2022-11-28T06:06:44.282Z,9.203765
2022-11-28T06:07:44.306Z,9.203815
2022-11-28T06:08:44.267Z,9.203959
2022-11-28T06:09:44.450Z,9.203607
2022-11-28T06:10:44.252Z,9.203764
2022-11-28T06:11:44.449Z,9.204240
2022-11-28T06:12:44.232Z,9.204365
2022-11-28T06:13:44.220Z,9.203918
2022-11-28T06:14:44.242Z,9.203861
2022-11-28T06:15:44.216Z,9.203685
2022-11-28T06:16:44.280Z,9.203910
2022-11-28T06:17:44.209Z,9.204157
2022-11-28T06:18:44.200Z,9.203712
2022-11-28T06:19:44.485Z,9.204130
2022-11-28T06:20:44.197Z,9.203657
2022-11-28T06:21:44.203Z,9.204103
2022-11-28T06:22:44.234Z,9.203712
2022-11-28T06:23:44.401Z,9.203515
2022-11-28T06:24:44.156Z,9.203545
2022-11-28T06:25:44.189Z,9.203834
2022-11-28T06:26:44.171Z,9.203952
2022-11-28T06:27:44.279Z,9.203983
2022-11-28T06:28:44.189Z,9.204128
2022-11-28T06:29:44.504Z,9.203591
2022-11-28T06:30:44.149Z,9.203600
2022-11-28T06:31:44.230Z,9.203762
2022-11-28T06:32:44.131Z,9.203819
2022-11-28T06:33:44.151Z,9.203751
2022-11-28T06:34:44.108Z,9.203741
2022-11-28T06:35:44.113Z,9.203942
2022-11-28T06:36:44.096Z,9.203897
2022-11-28T06:37:44.087Z,9.203752
2022-11-28T06:38:44.122Z,9.203815
2022-11-28T06:39:44.400Z,9.203856
2022-11-28T06:40:44.072Z,9.203784
2022-11-28T06:41:44.077Z,9.203589
2022-11-28T06:42:44.085Z,9.202798
2022-11-28T06:43:44.162Z,9.203246
2022-11-28T06:44:44.049Z,9.203175
2022-11-28T06:45:44.112Z,9.203304
2022-11-28T06:46:44.489Z,9.203568
2022-11-28T06:47:44.021Z,9.203451
2022-11-28T06:48:44.035Z,9.203444
2022-11-28T06:49:44.306Z,9.203565
2022-11-28T06:50:44.011Z,9.203398
2022-11-28T06:51:44.026Z,9.203771
2022-11-28T06:52:44.001Z,9.203660
2022-11-28T06:53:44.008Z,9.203372
2022-11-28T06:54:44.016Z,9.203619
2022-11-28T06:55:43.980Z,9.203737
2022-11-28T06:56:43.984Z,9.203805
2022-11-28T06:57:43.978Z,9.203385
2022-11-28T06:58:43.998Z,9.203759
2022-11-28T06:59:44.306Z,9.203871
2022-11-28T07:00:44.058Z,9.203790
2022-11-28T07:01:43.990Z,9.203923
2022-11-28T07:02:43.993Z,9.204074
2022-11-28T07:03:43.944Z,9.203516
2022-11-28T07:04:43.955Z,9.203663
2022-11-28T07:05:43.933Z,9.203862
2022-11-28T07:06:43.924Z,9.203641
2022-11-28T07:07:53.685Z,9.203423
2022-11-28T07:08:45.937Z,9.203430
2022-11-28T07:09:44.340Z,9.203159
2022-11-28T07:10:43.895Z,9.203688
2022-11-28T07:11:43.919Z,9.203534
2022-11-28T07:12:43.915Z,9.203381
2022-11-28T07:13:43.923Z,9.203473
2022-11-28T07:14:43.928Z,9.203366
2022-11-28T07:15:43.952Z,9.203505
2022-11-28T07:16:43.896Z,9.203523
2022-11-28T07:17:43.906Z,9.203599
2022-11-28T07:18:43.860Z,9.203813
2022-11-28T07:19:44.223Z,9.203632
2022-11-28T07:20:43.857Z,9.203254
2022-11-28T07:21:43.852Z,9.203861
2022-11-28T07:22:43.825Z,9.203820
2022-11-28T07:23:44.869Z,9.203973
2022-11-28T07:24:44.829Z,9.203339
2022-11-28T07:25:43.822Z,9.203813
2022-11-28T07:26:43.838Z,9.203758
2022-11-28T07:27:43.841Z,9.203746
2022-11-28T07:28:43.823Z,9.202914
2022-11-28T07:29:44.128Z,9.203100
2022-11-28T07:30:43.843Z,9.203964
2022-11-28T07:31:43.898Z,9.203898
2022-11-28T07:32:43.787Z,9.203568
2022-11-28T07:33:43.800Z,9.202654
2022-11-28T07:34:46.664Z,9.203243
2022-11-28T07:35:45.808Z,9.203749
2022-11-28T07:36:43.768Z,9.203790
2022-11-28T07:37:43.757Z,9.203836
2022-11-28T07:38:43.758Z,9.203827
2022-11-28T07:39:43.975Z,9.203862
2022-11-28T07:40:43.776Z,9.203484
2022-11-28T07:41:43.733Z,9.203569
2022-11-28T07:42:43.713Z,9.204219
2022-11-28T07:43:43.745Z,9.203985
2022-11-28T07:44:43.710Z,9.203918
2022-11-28T07:46:00.087Z,9.203835
2022-11-28T07:46:45.851Z,9.203107
2022-11-28T07:47:43.708Z,9.202971
2022-11-28T07:48:43.692Z,9.203526
2022-11-28T07:49:44.091Z,9.203526
2022-11-28T07:50:43.668Z,9.203679
2022-11-28T07:51:43.709Z,9.204165
2022-11-28T07:52:43.670Z,9.203743
2022-11-28T07:53:43.655Z,9.203207
2022-11-28T07:54:43.668Z,9.203393
2022-11-28T07:55:43.650Z,9.203673
2022-11-28T07:57:11.962Z,9.203222
2022-11-28T07:57:45.637Z,9.203115
2022-11-28T07:58:43.863Z,9.203065
2022-11-28T07:59:43.952Z,9.202794
2022-11-28T08:00:43.645Z,9.203210
2022-11-28T08:01:43.731Z,9.202631
2022-11-28T08:02:43.638Z,9.202769
2022-11-28T08:03:43.601Z,9.202680
2022-11-28T08:04:49.379Z,9.202892
2022-11-28T08:05:45.603Z,9.203008
2022-11-28T08:06:43.584Z,9.202043
2022-11-28T08:07:43.702Z,9.202746
2022-11-28T08:08:43.628Z,9.201384
2022-11-28T08:09:44.011Z,9.201855
2022-11-28T08:10:43.635Z,9.202197
2022-11-28T08:11:43.557Z,9.202666
2022-11-28T08:12:43.577Z,9.202292
2022-11-28T08:13:43.610Z,9.202660
2022-11-28T08:14:43.866Z,9.203048
2022-11-28T08:15:43.532Z,9.201869
2022-11-28T08:16:43.592Z,9.202615
2022-11-28T08:17:43.523Z,9.203598
2022-11-28T08:18:43.959Z,9.203077
2022-11-28T08:19:43.522Z,9.202603
2022-11-28T08:20:43.514Z,9.203852
2022-11-28T08:21:44.053Z,9.203671
2022-11-28T08:22:43.534Z,9.203661
2022-11-28T08:23:43.492Z,9.203475
2022-11-28T08:24:43.744Z,9.203723
2022-11-28T08:25:43.498Z,9.203574
2022-11-28T08:26:43.481Z,9.203321
2022-11-28T08:27:43.463Z,9.203741
2022-11-28T08:28:43.471Z,9.203582
2022-11-28T08:29:43.625Z,9.204009
2022-11-28T08:30:43.493Z,9.204138
2022-11-28T08:31:43.459Z,9.203670
2022-11-28T08:32:43.438Z,9.203549
2022-11-28T08:33:43.443Z,9.203791
2022-11-28T08:34:43.445Z,9.203835
2022-11-28T08:35:43.452Z,9.203676
2022-11-28T08:36:43.430Z,9.203614
2022-11-28T08:37:43.495Z,9.203728
2022-11-28T08:38:53.435Z,9.203720
2022-11-28T08:39:45.660Z,9.203842
2022-11-28T08:40:43.435Z,9.203863
2022-11-28T08:41:43.402Z,9.203889
2022-11-28T08:42:43.533Z,9.203670
2022-11-28T08:43:43.365Z,9.203748
2022-11-28T08:44:43.754Z,9.203531
2022-11-28T08:45:43.441Z,9.203716
2022-11-28T08:46:43.381Z,9.203764
2022-11-28T08:47:43.394Z,9.203705
2022-11-28T08:48:43.350Z,9.204002
2022-11-28T08:49:43.521Z,9.204081
2022-11-28T08:50:46.776Z,9.203777
2022-11-28T08:51:44.303Z,9.204100
2022-11-28T08:52:43.393Z,9.203783
2022-11-28T08:53:47.333Z,9.203590
2022-11-28T08:54:45.704Z,9.203855
2022-11-28T08:55:43.304Z,9.203763
2022-11-28T08:56:43.363Z,9.203734
2022-11-28T08:57:43.307Z,9.203913
2022-11-28T08:58:43.285Z,9.203861
2022-11-28T08:59:43.499Z,9.203444
2022-11-28T09:00:43.267Z,9.203485
2022-11-28T09:01:43.346Z,9.203925
2022-11-28T09:02:43.281Z,9.203771
2022-11-28T09:03:43.412Z,9.203548
2022-11-28T09:04:43.262Z,9.203686
2022-11-28T09:05:43.257Z,9.203781
2022-11-28T09:06:43.274Z,9.203866
2022-11-28T09:07:43.382Z,9.203737
2022-11-28T09:08:43.226Z,9.203961
2022-11-28T09:09:43.237Z,9.203633
2022-11-28T09:10:43.255Z,9.203810
2022-11-28T09:11:43.253Z,9.203747
2022-11-28T09:12:43.217Z,9.203749
2022-11-28T09:13:43.223Z,9.203780
2022-11-28T09:14:43.263Z,9.203943
2022-11-28T09:15:43.241Z,9.203637
2022-11-28T09:16:43.368Z,9.203842
2022-11-28T09:17:43.157Z,9.203758
2022-11-28T09:18:43.159Z,9.203744
2022-11-28T09:19:43.455Z,9.203730
2022-11-28T09:20:43.152Z,9.203742
2022-11-28T09:21:43.209Z,9.203687
2022-11-28T09:22:43.232Z,9.203658
2022-11-28T09:23:43.157Z,9.203712
2022-11-28T09:24:43.186Z,9.203820
2022-11-28T09:25:43.148Z,9.203776
2022-11-28T09:26:43.163Z,9.203726
2022-11-28T09:27:43.157Z,9.203743
2022-11-28T09:28:43.146Z,9.203753
2022-11-28T09:29:43.317Z,9.203646
2022-11-28T09:30:43.127Z,9.203695
2022-11-28T09:31:47.106Z,9.203807
2022-11-28T09:32:44.106Z,9.203671
2022-11-28T09:33:43.109Z,9.203751
2022-11-28T09:34:43.063Z,9.203730
2022-11-28T09:35:43.090Z,9.203662
2022-11-28T09:36:43.053Z,9.203688
2022-11-28T09:37:43.073Z,9.203615
2022-11-28T09:38:43.081Z,9.203568
2022-11-28T09:39:57.298Z,9.203678
2022-11-28T09:40:45.024Z,9.203785
2022-11-28T09:41:43.050Z,9.203641
2022-11-28T09:42:43.055Z,9.203762
2022-11-28T09:43:43.110Z,9.203821
2022-11-28T09:44:43.020Z,9.203756
2022-11-28T09:45:43.094Z,9.203797
2022-11-28T09:46:43.017Z,9.203841
2022-11-28T09:47:43.001Z,9.203671
2022-11-28T09:48:43.095Z,9.203728
2022-11-28T09:49:43.398Z,9.203765
2022-11-28T09:50:42.998Z,9.203725
2022-11-28T09:51:42.957Z,9.203750
2022-11-28T09:52:43.112Z,9.203766
2022-11-28T09:53:43.075Z,9.203843
2022-11-28T09:54:43.008Z,9.203709
2022-11-28T09:55:43.007Z,9.203815
2022-11-28T09:56:42.940Z,9.203761
2022-11-28T09:57:42.956Z,9.203651
2022-11-28T09:58:42.938Z,9.203814
2022-11-28T09:59:43.087Z,9.203778
2022-11-28T10:00:43.008Z,9.203590
2022-11-28T10:01:42.929Z,9.203753
2022-11-28T10:02:42.920Z,9.203750
2022-11-28T10:03:42.928Z,9.203744
2022-11-28T10:04:42.977Z,9.203730
2022-11-28T10:05:42.919Z,9.203639
2022-11-28T10:06:42.910Z,9.203734
2022-11-28T10:07:42.951Z,9.203802
2022-11-28T10:08:42.906Z,9.203714
2022-11-28T10:09:43.093Z,9.203893
2022-11-28T10:10:42.909Z,9.203729
2022-11-28T10:11:42.909Z,9.203854
2022-11-28T10:12:42.863Z,9.203837
2022-11-28T10:14:06.685Z,9.203799
2022-11-28T10:14:44.904Z,9.203665
2022-11-28T10:15:42.868Z,9.203760
2022-11-28T10:16:42.913Z,9.203827
2022-11-28T10:17:42.863Z,9.203888
2022-11-28T10:18:42.838Z,9.203886
2022-11-28T10:19:58.234Z,9.203781
2022-11-28T10:20:44.818Z,9.203659
2022-11-28T10:21:42.809Z,9.203656
2022-11-28T10:22:42.888Z,9.203552
2022-11-28T10:23:42.827Z,9.203701
2022-11-28T10:24:42.803Z,9.203670
2022-11-28T10:25:42.776Z,9.203566
2022-11-28T10:26:42.811Z,9.203486
2022-11-28T10:27:42.808Z,9.203383
2022-11-28T10:28:42.903Z,9.203618
2022-11-28T10:29:43.132Z,9.203777
2022-11-28T10:30:42.812Z,9.203576
2022-11-28T10:31:42.840Z,9.203530
2022-11-28T10:32:42.768Z,9.203668
2022-11-28T10:33:42.785Z,9.203805
2022-11-28T10:34:42.740Z,9.203381
2022-11-28T10:35:42.762Z,9.203403
2022-11-28T10:36:42.745Z,9.202960
2022-11-28T10:37:42.761Z,9.203396
2022-11-28T10:38:42.918Z,9.203631
2022-11-28T10:39:42.983Z,9.203662
2022-11-28T10:40:42.709Z,9.203995
2022-11-28T10:41:42.713Z,9.203865
2022-11-28T10:42:42.750Z,9.204292
2022-11-28T10:43:42.710Z,9.204073
2022-11-28T10:44:42.732Z,9.203956
2022-11-28T10:45:42.723Z,9.203525
2022-11-28T10:46:42.744Z,9.203115
2022-11-28T10:47:42.742Z,9.202717
2022-11-28T10:48:42.709Z,9.202885
2022-11-28T10:49:43.022Z,9.202933
2022-11-28T10:50:42.665Z,9.202959
2022-11-28T10:51:42.675Z,9.203454
2022-11-28T10:52:42.659Z,9.203553
2022-11-28T10:53:42.676Z,9.203740
2022-11-28T10:54:42.768Z,9.203638
2022-11-28T10:55:42.719Z,9.203783
2022-11-28T10:56:42.845Z,9.204127
2022-11-28T10:57:42.675Z,9.203597
2022-11-28T10:58:42.761Z,9.203774
2022-11-28T10:59:42.810Z,9.203709
2022-11-28T11:00:42.605Z,9.203772
2022-11-28T11:01:45.920Z,9.203994
2022-11-28T11:02:44.577Z,9.203744
2022-11-28T11:03:42.590Z,9.203994
2022-11-28T11:04:42.680Z,9.203946
2022-11-28T11:05:42.593Z,9.203717
2022-11-28T11:07:06.957Z,9.203606
2022-11-28T11:07:43.603Z,9.203518
2022-11-28T11:08:42.573Z,9.203349
2022-11-28T11:09:42.830Z,9.203465
2022-11-28T11:10:42.588Z,9.203573
2022-11-28T11:11:42.604Z,9.203480
2022-11-28T11:12:42.562Z,9.203693
2022-11-28T11:13:42.539Z,9.204112
2022-11-28T11:14:42.606Z,9.204296
2022-11-28T11:15:42.599Z,9.204201
2022-11-28T11:16:42.526Z,9.204239
2022-11-28T11:17:42.497Z,9.204406
2022-11-28T11:18:42.534Z,9.204059
2022-11-28T11:19:42.852Z,9.203934
2022-11-28T11:20:42.493Z,9.204067
2022-11-28T11:21:42.500Z,9.203989
2022-11-28T11:22:43.044Z,9.203857
2022-11-28T11:23:42.484Z,9.203894
2022-11-28T11:24:42.498Z,9.203912
2022-11-28T11:25:42.469Z,9.203959
2022-11-28T11:26:42.489Z,9.204010
2022-11-28T11:27:42.469Z,9.203786
2022-11-28T11:28:42.505Z,9.203926
2022-11-28T11:29:44.751Z,9.204199
2022-11-28T11:30:42.528Z,9.204038
2022-11-28T11:31:42.443Z,9.203687
2022-11-28T11:32:43.280Z,9.203674
2022-11-28T11:33:42.460Z,9.203906
2022-11-28T11:34:42.422Z,9.204270
2022-11-28T11:35:42.427Z,9.204443
2022-11-28T11:36:42.417Z,9.204207
2022-11-28T11:37:42.428Z,9.203922
2022-11-28T11:38:42.449Z,9.203613
2022-11-28T11:39:42.665Z,9.203727
2022-11-28T11:40:42.395Z,9.203849
2022-11-28T11:41:42.392Z,9.203625
2022-11-28T11:42:42.449Z,9.203932
2022-11-28T11:43:42.404Z,9.203096
2022-11-28T11:44:42.394Z,9.204104